createdAt,value
2022-08-19T00:04:43.509Z,13.20
2022-08-19T00:09:46.275Z,12.77
2022-08-19T00:14:50.279Z,10.47
2022-08-19T00:19:52.980Z,12.67
2022-08-19T00:24:56.250Z,13.00
2022-08-19T00:30:03.810Z,11.13
2022-08-19T00:35:07.529Z,14.90
2022-08-19T00:40:14.156Z,10.00
2022-08-19T00:45:26.293Z,11.13
2022-08-19T00:50:28.997Z,11.30
2022-08-19T00:55:34.517Z,11.37
2022-08-19T01:00:39.101Z,13.10
2022-08-19T01:05:44.174Z,12.73
2022-08-19T01:10:49.390Z,11.27
2022-08-19T01:15:58.324Z,10.87
2022-08-19T01:21:07.198Z,13.83
2022-08-19T01:26:14.363Z,10.60
2022-08-19T01:31:27.329Z,14.43
2022-08-19T01:36:37.692Z,10.73
2022-08-19T01:41:41.764Z,11.13
2022-08-19T01:46:45.724Z,14.07
2022-08-19T01:51:49.090Z,10.27
2022-08-19T01:56:55.108Z,9.67
2022-08-19T02:01:59.137Z,9.77
2022-08-19T02:07:01.919Z,9.73
2022-08-19T02:12:06.948Z,11.03
2022-08-19T02:17:09.689Z,10.67
2022-08-19T02:22:12.744Z,10.43
2022-08-19T02:27:17.612Z,9.87
2022-08-19T02:32:21.428Z,10.47
2022-08-19T02:37:41.688Z,10.67
2022-08-19T02:42:47.235Z,11.17
2022-08-19T02:47:49.945Z,11.37
2022-08-19T02:52:52.828Z,11.10
2022-08-19T02:57:57.960Z,9.97
2022-08-19T03:03:01.356Z,11.30
2022-08-19T03:08:06.568Z,10.50
2022-08-19T03:13:10.596Z,10.50
2022-08-19T03:18:14.432Z,11.10
2022-08-19T03:23:18.355Z,10.80
2022-08-19T03:28:23.097Z,13.03
2022-08-19T03:33:28.651Z,11.90
2022-08-19T03:38:33.180Z,12.20
2022-08-19T03:43:38.818Z,11.60
2022-08-19T03:48:43.451Z,16.13
2022-08-19T03:53:46.127Z,17.87
2022-08-19T03:58:50.280Z,16.30
2022-08-19T04:03:53.538Z,17.90
2022-08-19T04:08:59.657Z,20.73
2022-08-19T04:14:04.442Z,22.50
2022-08-19T04:19:08.255Z,21.27
2022-08-19T04:24:11.795Z,22.07
2022-08-19T04:29:18.233Z,20.93
2022-08-19T04:34:24.340Z,20.73
2022-08-19T04:39:50.416Z,23.30
2022-08-19T04:44:55.225Z,22.07
2022-08-19T04:49:58.194Z,25.93
2022-08-19T04:55:01.186Z,23.60
2022-08-19T05:00:06.140Z,24.30
2022-08-19T05:05:09.861Z,29.80
2022-08-19T05:10:13.261Z,31.67
2022-08-19T05:15:17.950Z,30.83
2022-08-19T05:20:38.515Z,34.27
2022-08-19T05:25:42.159Z,33.90
2022-08-19T05:30:47.716Z,35.63
2022-08-19T05:35:53.461Z,35.60
2022-08-19T05:53:53.751Z,39.60
2022-08-19T05:58:56.896Z,42.70
2022-08-19T06:04:02.753Z,39.90
2022-08-19T06:09:07.175Z,42.47
2022-08-19T06:14:16.538Z,45.80
2022-08-19T06:19:25.153Z,42.63
2022-08-19T06:24:30.329Z,43.17
2022-08-19T06:29:33.482Z,37.70
2022-08-19T06:34:37.576Z,45.77
2022-08-19T06:39:42.232Z,43.60
2022-08-19T06:44:48.725Z,48.17
2022-08-19T06:49:56.511Z,49.10
2022-08-19T06:55:06.262Z,44.10
2022-08-19T07:00:14.350Z,40.50
2022-08-19T07:05:18.840Z,42.43
2022-08-19T07:10:22.950Z,42.30
2022-08-19T07:15:28.492Z,42.60
2022-08-19T07:20:33.726Z,45.13
2022-08-19T07:25:38.119Z,41.73
2022-08-19T07:30:41.739Z,39.40
2022-08-19T07:35:48.004Z,34.40
2022-08-19T07:40:52.325Z,39.87
2022-08-19T07:45:57.431Z,32.33
2022-08-19T07:51:03.620Z,32.00
2022-08-19T07:56:07.059Z,26.00
2022-08-19T08:01:13.060Z,28.47
2022-08-19T08:06:35.558Z,32.60
2022-08-19T08:11:38.245Z,34.70
2022-08-19T08:16:46.800Z,39.90
2022-08-19T08:21:53.865Z,49.50
2022-08-19T08:26:57.766Z,32.43
2022-08-19T08:32:00.588Z,40.20
2022-08-19T08:37:05.287Z,38.60
2022-08-19T08:42:17.862Z,33.30
2022-08-19T08:47:24.168Z,35.93
2022-08-19T08:52:32.226Z,29.00
2022-08-19T08:57:40.879Z,36.43
2022-08-19T09:02:44.116Z,33.43
2022-08-19T09:07:54.417Z,38.40
2022-08-19T09:13:09.492Z,32.77
2022-08-19T09:18:19.011Z,29.77
2022-08-19T09:23:26.675Z,32.77
2022-08-19T09:28:30.527Z,27.47
2022-08-19T09:33:35.419Z,24.27
2022-08-19T09:38:43.568Z,25.03
2022-08-19T09:43:48.585Z,28.83
2022-08-19T09:48:54.817Z,28.77
2022-08-19T09:54:02.529Z,30.10
2022-08-19T09:59:07.663Z,30.93
2022-08-19T10:04:19.934Z,24.27
2022-08-19T10:09:33.727Z,25.23
2022-08-19T10:14:37.775Z,28.07
2022-08-19T10:19:41.967Z,30.30
2022-08-19T10:24:59.474Z,27.93
2022-08-19T10:30:02.150Z,25.97
2022-08-19T10:35:09.026Z,29.20
2022-08-19T10:40:14.314Z,26.07
2022-08-19T10:45:17.548Z,25.40
2022-08-19T10:50:38.331Z,20.27
2022-08-19T10:56:00.240Z,18.60
2022-08-19T11:01:03.200Z,18.73
2022-08-19T11:06:08.503Z,16.70
2022-08-19T11:11:13.210Z,19.97
2022-08-19T11:16:18.611Z,15.13
2022-08-19T11:21:25.941Z,16.33
2022-08-19T11:26:31.244Z,13.77
2022-08-19T11:31:40.087Z,13.70
2022-08-19T11:36:45.062Z,13.23
2022-08-19T11:41:49.395Z,8.60
2022-08-19T11:46:53.348Z,9.60
2022-08-19T11:51:56.384Z,9.50
2022-08-19T11:57:02.052Z,8.20
2022-08-19T12:02:04.971Z,7.47
2022-08-19T12:07:08.005Z,8.10
2022-08-19T12:12:13.816Z,4.83
2022-08-19T12:17:16.790Z,7.57
2022-08-19T12:22:21.821Z,5.10
2022-08-19T12:27:39.972Z,6.67
2022-08-19T12:32:43.394Z,6.90
2022-08-19T12:37:53.604Z,13.13
2022-08-19T12:43:01.689Z,7.20
2022-08-19T12:48:33.599Z,9.23
2022-08-19T12:53:29.635Z,9.30
2022-08-19T12:58:35.447Z,7.07
2022-08-19T13:03:40.615Z,7.73
2022-08-19T13:08:46.609Z,8.53
2022-08-19T13:13:56.033Z,9.17
2022-08-19T13:18:59.736Z,7.40
2022-08-19T13:24:02.488Z,6.40
2022-08-19T13:29:23.861Z,10.10
2022-08-19T13:34:34.764Z,13.27
2022-08-19T13:39:37.905Z,11.43
2022-08-19T13:44:43.470Z,10.07
2022-08-19T13:49:47.125Z,8.57
2022-08-19T13:54:50.173Z,9.10
2022-08-19T13:59:59.063Z,10.03
2022-08-19T14:05:01.862Z,14.80
2022-08-19T14:10:05.728Z,8.30
2022-08-19T14:15:12.554Z,7.37
2022-08-19T14:20:18.747Z,5.90
2022-08-19T14:25:23.745Z,10.70
2022-08-19T14:30:32.679Z,9.30
2022-08-19T14:35:35.720Z,6.60
2022-08-19T14:40:38.732Z,9.60
2022-08-19T14:45:42.846Z,11.30
2022-08-19T14:50:46.828Z,10.40
2022-08-19T14:55:49.469Z,12.10
2022-08-19T15:00:53.474Z,10.97
2022-08-19T15:05:56.445Z,9.50
2022-08-19T15:11:00.156Z,11.50
2022-08-19T15:16:07.086Z,9.57
2022-08-19T15:21:26.773Z,9.83
2022-08-19T15:26:33.202Z,13.20
2022-08-19T15:31:38.211Z,12.10
2022-08-19T15:36:41.757Z,11.40
2022-08-19T15:41:45.218Z,12.80
2022-08-19T15:46:50.059Z,22.63
2022-08-19T15:51:54.075Z,17.57
2022-08-19T15:57:14.081Z,15.80
2022-08-19T16:02:37.383Z,13.33
2022-08-19T16:07:40.424Z,10.30
2022-08-19T16:12:43.086Z,9.43
2022-08-19T16:17:56.321Z,9.73
2022-08-19T16:23:03.309Z,9.50
2022-08-19T16:28:08.624Z,8.67
2022-08-19T16:33:12.979Z,10.27
2022-08-19T16:38:25.881Z,9.47
2022-08-19T16:43:31.872Z,15.53
2022-08-19T16:48:43.090Z,11.43
2022-08-19T16:53:46.767Z,14.77
2022-08-19T16:58:50.591Z,10.43
2022-08-19T17:03:55.351Z,12.30
2022-08-19T17:09:01.233Z,9.90
2022-08-19T17:14:09.916Z,18.60
2022-08-19T17:19:14.918Z,13.17
2022-08-19T17:24:20.361Z,13.90
2022-08-19T17:29:23.291Z,15.17
2022-08-19T17:34:28.026Z,21.43
2022-08-19T17:39:31.147Z,16.33
2022-08-19T17:44:42.332Z,19.37
2022-08-19T17:49:49.101Z,15.27
2022-08-19T17:54:52.092Z,11.90
2022-08-19T18:00:03.343Z,15.03
2022-08-19T18:05:15.925Z,10.43
2022-08-19T18:10:18.833Z,9.93
2022-08-19T18:15:27.613Z,8.10
2022-08-19T18:20:32.595Z,7.63
2022-08-19T18:25:35.253Z,7.10
2022-08-19T18:30:38.086Z,8.10
2022-08-19T18:35:45.738Z,8.10
2022-08-19T18:41:06.201Z,8.07
2022-08-19T18:46:26.597Z,9.23
2022-08-19T18:51:35.359Z,9.17
2022-08-19T18:56:43.803Z,8.83
2022-08-19T19:01:50.413Z,15.47
2022-08-19T19:06:55.371Z,8.73
2022-08-19T19:12:01.050Z,8.10
2022-08-19T19:17:08.016Z,8.50
2022-08-19T19:22:16.008Z,9.47
2022-08-19T19:27:21.242Z,7.17
2022-08-19T19:32:27.553Z,9.13
2022-08-19T19:37:31.990Z,8.30
2022-08-19T19:42:35.158Z,10.47
2022-08-19T19:47:37.980Z,9.00
2022-08-19T19:52:45.721Z,9.20
2022-08-19T19:57:49.612Z,10.00
2022-08-19T20:02:53.433Z,12.00
2022-08-19T20:08:14.992Z,11.90
2022-08-19T20:13:17.923Z,12.50
2022-08-19T20:18:23.846Z,14.00
2022-08-19T20:23:28.021Z,11.60
2022-08-19T20:28:31.819Z,12.77
2022-08-19T20:33:35.220Z,17.30
2022-08-19T20:38:41.855Z,16.90
2022-08-19T20:43:44.925Z,13.17
2022-08-19T20:48:47.608Z,18.67
2022-08-19T20:53:56.979Z,15.20
2022-08-19T20:59:04.215Z,12.90
2022-08-19T21:04:07.218Z,14.23
2022-08-19T21:09:11.355Z,15.07
2022-08-19T21:14:14.389Z,15.87
2022-08-19T21:19:19.046Z,16.67
2022-08-19T21:24:31.713Z,15.30
2022-08-19T21:29:37.506Z,16.23
2022-08-19T21:34:40.309Z,16.87
2022-08-19T21:39:44.762Z,16.37
2022-08-19T21:44:47.661Z,17.30
2022-08-19T21:49:50.287Z,18.53
2022-08-19T21:54:57.982Z,19.33
2022-08-19T22:00:01.344Z,20.90
2022-08-19T22:05:09.516Z,15.43
2022-08-19T22:10:13.848Z,12.43
2022-08-19T22:15:16.997Z,7.90
2022-08-19T22:20:25.042Z,7.20
2022-08-19T22:25:36.228Z,10.20
2022-08-19T22:30:41.892Z,19.67
2022-08-19T22:35:57.649Z,16.53
2022-08-19T22:41:05.689Z,15.33
2022-08-19T22:46:15.093Z,18.53
2022-08-19T22:51:46.999Z,16.13
2022-08-19T22:56:51.762Z,15.63
2022-08-19T23:01:54.620Z,17.50
2022-08-19T23:06:57.298Z,16.33
2022-08-19T23:12:01.503Z,16.07
2022-08-19T23:17:04.647Z,14.40
2022-08-19T23:22:08.260Z,14.23
2022-08-19T23:27:29.955Z,16.43
2022-08-19T23:32:35.906Z,16.60
2022-08-19T23:37:39.009Z,20.80
2022-08-19T23:42:46.431Z,14.80
2022-08-19T23:47:49.073Z,15.10
2022-08-19T23:52:54.433Z,17.63
2022-08-19T23:57:59.039Z,15.47
